Time;durP1;ratioP1;P1;durP2;ratioP2;P2;SDS_P1;SDS_P2;PMS_P1;PMS_P2;Temp;Humidity;BMP_temperature;BMP_pressure;BME280_temperature;BME280_humidity;BME280_pressure;Samples;Min_cycle;Max_cycle;Signal;HPM_P1;HPM_P2
2023/03/17 00:01:54;;;;;;;4.90;2.83;;;;;;;1.22;56.24;99538.75;4485805;31;20096;-67
2023/03/17 00:04:23;;;;;;;7.35;2.92;;;;;;;1.17;56.36;99520.84;4484488;32;20135;-67
2023/03/17 00:06:51;;;;;;;7.50;3.20;;;;;;;1.23;56.71;99530.09;4485645;31;20146;-67
2023/03/17 00:09:21;;;;;;;8.65;3.30;;;;;;;1.19;56.94;99526.78;4485741;32;20394;-67
2023/03/17 00:11:49;;;;;;;10.25;3.17;;;;;;;1.14;56.92;99527.87;4485623;31;20093;-67
2023/03/17 00:14:18;;;;;;;7.68;2.97;;;;;;;1.06;57.25;99533.34;4485911;32;20222;-67
2023/03/17 00:16:48;;;;;;;6.75;3.25;;;;;;;1.04;57.21;99530.78;4485468;31;20106;-67
2023/03/17 00:19:20;;;;;;;7.37;3.20;;;;;;;1.10;57.03;99523.72;4484363;32;20155;-67
2023/03/17 00:21:48;;;;;;;7.78;3.50;;;;;;;1.04;56.93;99522.22;4484287;32;20112;-67
2023/03/17 00:24:16;;;;;;;7.40;2.62;;;;;;;0.99;57.65;99524.97;4484587;32;20112;-67
2023/03/17 00:26:43;;;;;;;6.18;2.85;;;;;;;0.99;57.10;99521.56;4485782;31;20100;-68
2023/03/17 00:29:12;;;;;;;7.80;2.70;;;;;;;0.98;57.54;99525.03;4485582;31;20106;-68
2023/03/17 00:31:39;;;;;;;8.05;3.45;;;;;;;0.95;58.30;99525.16;4485630;31;20435;-67
2023/03/17 00:34:11;;;;;;;4.60;2.78;;;;;;;0.86;58.21;99519.44;4484328;32;20104;-67
2023/03/17 00:36:39;;;;;;;6.93;2.87;;;;;;;0.80;58.46;99522.25;4484330;32;20110;-67
2023/03/17 00:39:13;;;;;;;6.93;3.22;;;;;;;0.83;58.67;99516.97;4484252;32;20108;-67
2023/03/17 00:41:43;;;;;;;8.32;2.97;;;;;;;0.97;58.52;99518.19;4485650;31;20084;-67
2023/03/17 00:44:10;;;;;;;7.35;3.45;;;;;;;1.11;58.45;99515.94;4485585;31;20458;-67
2023/03/17 00:46:40;;;;;;;10.45;3.87;;;;;;;1.15;57.48;99514.06;4485383;31;20092;-67
2023/03/17 00:49:19;;;;;;;13.82;2.97;;;;;;;1.21;56.86;99506.94;4485221;31;20088;-68
2023/03/17 00:51:47;;;;;;;6.57;3.03;;;;;;;1.21;57.00;99500.91;4485124;31;20097;-67
2023/03/17 00:54:15;;;;;;;6.57;3.25;;;;;;;1.27;56.99;99495.50;4485553;31;20123;-67
2023/03/17 00:56:43;;;;;;;6.25;3.55;;;;;;;1.17;57.43;99500.22;4485230;32;20613;-67
2023/03/17 00:59:20;;;;;;;7.05;3.22;;;;;;;1.15;58.41;99496.84;4485436;31;20099;-68
2023/03/17 01:01:48;;;;;;;7.68;2.80;;;;;;;1.12;57.95;99507.28;4484492;32;20089;-67
2023/03/17 01:04:15;;;;;;;9.05;3.28;;;;;;;1.01;57.58;99504.28;4485156;31;20118;-67
2023/03/17 01:06:43;;;;;;;7.40;3.20;;;;;;;0.99;57.51;99508.66;4483896;32;20092;-67
2023/03/17 01:09:13;;;;;;;4.25;2.95;;;;;;;0.90;57.62;99503.84;4485377;32;20421;-67
2023/03/17 01:11:41;;;;;;;6.87;2.83;;;;;;;0.88;57.86;99504.75;4485400;31;20104;-67
2023/03/17 01:14:10;;;;;;;7.82;3.72;;;;;;;0.95;58.02;99497.59;4485203;31;20165;-67
2023/03/17 01:16:38;;;;;;;10.45;4.00;;;;;;;1.00;57.38;99510.31;4485227;31;20114;-68
2023/03/17 01:19:05;;;;;;;7.07;3.37;;;;;;;0.95;57.30;99507.09;4485140;32;20104;-67
2023/03/17 01:21:33;;;;;;;6.97;3.65;;;;;;;0.91;57.56;99505.50;4485138;32;20111;-67
2023/03/17 01:24:01;;;;;;;6.85;3.25;;;;;;;0.79;57.74;99509.38;4485416;31;20112;-67
2023/03/17 01:26:29;;;;;;;7.15;3.20;;;;;;;0.76;58.09;99504.34;4485171;32;20091;-68
2023/03/17 01:28:56;;;;;;;9.10;3.58;;;;;;;0.63;58.69;99516.88;4485091;31;20481;-67
2023/03/17 01:31:25;;;;;;;7.35;3.22;;;;;;;0.57;59.17;99509.34;4485171;31;20127;-68
2023/03/17 01:33:52;;;;;;;7.22;3.55;;;;;;;0.46;59.42;99508.00;4485208;31;20369;-67
2023/03/17 01:36:21;;;;;;;8.70;3.45;;;;;;;0.48;59.42;99503.63;4485030;32;20092;-67
2023/03/17 01:38:49;;;;;;;11.43;3.85;;;;;;;0.49;59.61;99500.16;4485123;31;20114;-67
2023/03/17 01:41:17;;;;;;;5.47;2.78;;;;;;;0.55;59.24;99506.84;4484968;31;20115;-68
2023/03/17 01:43:45;;;;;;;8.52;2.95;;;;;;;0.67;59.29;99500.38;4485106;31;20084;-67
2023/03/17 01:46:28;;;;;;;7.35;2.90;;;;;;;0.56;59.65;99507.66;4483794;32;20118;-67
2023/03/17 01:49:08;;;;;;;9.90;3.03;;;;;;;0.48;59.83;99505.37;4485113;31;20119;-67
2023/03/17 01:51:46;;;;;;;8.27;3.35;;;;;;;0.37;59.95;99505.75;4484961;31;20093;-67
2023/03/17 01:54:25;;;;;;;11.43;3.35;;;;;;;0.39;60.16;99508.28;4483939;32;20105;-67
2023/03/17 01:56:56;;;;;;;6.80;2.53;;;;;;;0.36;60.09;99506.63;4485328;32;20110;-67
2023/03/17 01:59:27;;;;;;;5.57;2.72;;;;;;;0.41;59.97;99496.16;4485142;31;20147;-67
2023/03/17 02:02:01;;;;;;;5.93;2.60;;;;;;;0.49;59.89;99486.44;4483935;32;20089;-67
2023/03/17 02:04:28;;;;;;;5.27;2.63;;;;;;;0.55;59.04;99490.53;4483793;32;20454;-67
2023/03/17 02:06:56;;;;;;;6.10;2.65;;;;;;;0.63;58.96;99484.16;4484485;32;20119;-67
2023/03/17 02:09:26;;;;;;;7.50;3.17;;;;;;;0.70;58.64;99498.53;4483324;32;20374;-67
2023/03/17 02:11:55;;;;;;;6.95;3.22;;;;;;;0.69;58.93;99506.31;4485105;31;20207;-67
2023/03/17 02:14:22;;;;;;;4.57;2.72;;;;;;;0.73;58.67;99510.47;4484632;31;20118;-67
2023/03/17 02:16:50;;;;;;;6.95;3.42;;;;;;;0.70;58.51;99523.47;4483513;31;20080;-67
2023/03/17 02:19:17;;;;;;;6.62;2.72;;;;;;;0.76;58.78;99520.69;4484707;31;20164;-67
2023/03/17 02:21:55;;;;;;;8.90;2.97;;;;;;;0.59;59.22;99528.19;4484596;32;20092;-67
2023/03/17 02:24:34;;;;;;;13.38;2.80;;;;;;;0.55;59.09;99531.78;4483434;32;20104;-67
2023/03/17 02:27:07;;;;;;;9.60;3.40;;;;;;;0.43;59.84;99535.63;4484670;31;20622;-67
2023/03/17 02:29:36;;;;;;;5.20;3.03;;;;;;;0.45;59.46;99539.81;4484487;31;20168;-67
2023/03/17 02:32:05;;;;;;;8.65;3.30;;;;;;;0.47;59.99;99535.47;4483154;32;20473;-67
2023/03/17 02:34:33;;;;;;;8.40;2.85;;;;;;;0.45;60.64;99536.41;4484560;31;20172;-67
2023/03/17 02:37:04;;;;;;;7.18;2.85;;;;;;;0.48;59.89;99542.28;4484517;32;20088;-67
2023/03/17 02:39:31;;;;;;;6.22;3.08;;;;;;;0.47;59.73;99547.50;4484307;31;20104;-67
2023/03/17 02:41:59;;;;;;;9.00;2.90;;;;;;;0.45;60.03;99546.72;4484404;31;20101;-67
2023/03/17 02:44:26;;;;;;;4.55;2.55;;;;;;;0.42;60.33;99541.66;4484375;31;20485;-67
2023/03/17 02:46:53;;;;;;;7.35;3.22;;;;;;;0.41;60.14;99539.97;4484340;31;20461;-67
2023/03/17 02:49:21;;;;;;;5.45;2.83;;;;;;;0.42;60.41;99537.34;4484261;31;21004;-67
2023/03/17 02:51:49;;;;;;;8.00;2.95;;;;;;;0.34;60.51;99532.47;4482851;32;20426;-67
2023/03/17 02:54:16;;;;;;;9.70;3.12;;;;;;;0.32;60.39;99525.69;4484188;31;20100;-67
2023/03/17 02:56:44;;;;;;;7.35;3.60;;;;;;;0.32;60.80;99531.69;4484180;31;20148;-67
2023/03/17 02:59:12;;;;;;;9.38;3.30;;;;;;;0.17;61.42;99534.81;4482851;32;20114;-67
2023/03/17 03:01:39;;;;;;;5.22;3.20;;;;;;;0.06;61.75;99534.31;4484226;31;20495;-67
2023/03/17 03:04:07;;;;;;;8.13;3.55;;;;;;;0.00;62.15;99532.81;4484400;31;20088;-67
2023/03/17 03:06:38;;;;;;;6.40;3.37;;;;;;;0.00;62.15;99535.37;4484000;32;20092;-67
2023/03/17 03:09:05;;;;;;;9.48;2.67;;;;;;;-0.07;62.43;99533.91;4483979;31;20115;-67
2023/03/17 03:11:32;;;;;;;5.55;3.08;;;;;;;-0.05;62.66;99537.25;4484049;32;20100;-67
2023/03/17 03:14:00;;;;;;;5.03;2.90;;;;;;;-0.12;62.76;99535.75;4483886;32;20127;-68
2023/03/17 03:16:27;;;;;;;6.47;3.37;;;;;;;-0.14;63.03;99538.38;4483804;31;20076;-68
2023/03/17 03:18:55;;;;;;;6.25;3.08;;;;;;;-0.19;63.84;99538.53;4483669;32;20119;-67
2023/03/17 03:21:23;;;;;;;10.02;3.22;;;;;;;-0.19;64.28;99530.81;4483849;31;20152;-67
2023/03/17 03:23:50;;;;;;;10.32;3.50;;;;;;;-0.20;63.41;99521.44;4483901;32;20092;-67
2023/03/17 03:26:18;;;;;;;9.65;3.58;;;;;;;-0.08;62.81;99521.91;4482522;32;20122;-67
2023/03/17 03:28:45;;;;;;;7.18;3.60;;;;;;;0.04;62.53;99528.37;4485206;31;20108;-67
2023/03/17 03:31:12;;;;;;;8.45;3.28;;;;;;;0.04;62.37;99526.63;4486225;31;20118;-67
2023/03/17 03:33:40;;;;;;;7.95;3.75;;;;;;;0.06;62.07;99530.03;4486325;31;20117;-67
2023/03/17 03:36:08;;;;;;;6.30;3.00;;;;;;;-0.04;62.63;99521.75;4486015;31;20818;-67
2023/03/17 03:38:35;;;;;;;6.60;3.00;;;;;;;-0.15;63.12;99525.56;4486034;31;20111;-67
2023/03/17 03:41:03;;;;;;;5.75;2.87;;;;;;;-0.27;63.42;99521.66;4484590;32;20112;-67
2023/03/17 03:43:30;;;;;;;5.25;3.25;;;;;;;-0.38;64.03;99520.28;4486014;31;20096;-67
2023/03/17 03:45:59;;;;;;;7.97;3.47;;;;;;;-0.40;64.53;99526.38;4485906;31;20115;-67
2023/03/17 03:48:27;;;;;;;6.40;3.20;;;;;;;-0.52;64.86;99527.59;4485703;31;20088;-67
2023/03/17 03:50:56;;;;;;;6.53;3.05;;;;;;;-0.55;64.91;99522.56;4485815;31;20449;-67
2023/03/17 03:53:24;;;;;;;9.25;2.92;;;;;;;-0.59;65.31;99523.53;4485950;31;20123;-67
2023/03/17 03:55:51;;;;;;;6.15;3.37;;;;;;;-0.58;65.46;99513.19;4485880;31;20085;-67
2023/03/17 03:58:19;;;;;;;5.15;2.55;;;;;;;-0.57;65.24;99511.47;4485876;31;20076;-67
2023/03/17 04:00:46;;;;;;;11.68;3.40;;;;;;;-0.48;64.66;99518.91;4485835;31;20209;-68
2023/03/17 04:03:14;;;;;;;7.72;3.10;;;;;;;-0.47;64.57;99519.72;4486061;32;20100;-68
2023/03/17 04:05:42;;;;;;;6.70;3.17;;;;;;;-0.50;64.58;99515.53;4485613;31;20092;-67
2023/03/17 04:08:10;;;;;;;5.07;2.30;;;;;;;-0.54;64.81;99511.38;4485859;31;20092;-67
2023/03/17 04:10:37;;;;;;;9.63;3.60;;;;;;;-0.42;64.45;99510.97;4485502;32;20100;-67
2023/03/17 04:13:05;;;;;;;9.10;3.00;;;;;;;-0.34;64.45;99513.31;4485989;31;20159;-67
2023/03/17 04:15:32;;;;;;;5.40;2.72;;;;;;;-0.26;64.31;99510.47;4485562;31;20123;-67
2023/03/17 04:18:00;;;;;;;8.20;3.47;;;;;;;-0.39;64.50;99507.47;4485974;31;20100;-67
2023/03/17 04:20:27;;;;;;;5.97;3.08;;;;;;;-0.42;64.75;99510.16;4485431;31;20662;-67
2023/03/17 04:22:55;;;;;;;14.50;4.32;;;;;;;-0.47;65.00;99505.16;4485690;32;20111;-67
2023/03/17 04:25:22;;;;;;;9.70;3.67;;;;;;;-0.47;64.77;99514.59;4485651;31;20101;-67
2023/03/17 04:27:49;;;;;;;7.25;3.05;;;;;;;-0.51;64.96;99513.84;4485524;32;20159;-67
2023/03/17 04:30:17;;;;;;;5.93;2.67;;;;;;;-0.47;64.68;99510.28;4485564;31;20157;-67
2023/03/17 04:32:45;;;;;;;11.25;3.67;;;;;;;-0.48;64.77;99518.06;4485554;31;20088;-67
2023/03/17 04:35:14;;;;;;;8.55;3.10;;;;;;;-0.52;64.90;99507.00;4485615;31;20127;-68
2023/03/17 04:37:42;;;;;;;6.87;3.15;;;;;;;-0.56;65.10;99508.84;4485448;31;20112;-67
2023/03/17 04:40:12;;;;;;;7.93;3.25;;;;;;;-0.48;64.82;99521.47;4484931;32;20104;-67
2023/03/17 04:42:39;;;;;;;9.00;3.42;;;;;;;-0.52;65.20;99525.03;4484326;32;20155;-68
2023/03/17 04:45:10;;;;;;;7.62;3.65;;;;;;;-0.57;65.45;99517.44;4485465;31;20088;-67
2023/03/17 04:47:38;;;;;;;5.78;3.17;;;;;;;-0.54;65.44;99513.94;4485505;31;20105;-68
2023/03/17 04:50:07;;;;;;;7.75;3.35;;;;;;;-0.54;65.85;99519.09;4485432;32;20127;-67
2023/03/17 04:52:35;;;;;;;8.57;3.55;;;;;;;-0.54;65.86;99519.94;4485343;31;20438;-68
2023/03/17 04:55:04;;;;;;;9.77;3.17;;;;;;;-0.55;65.88;99528.53;4485531;31;20477;-67
2023/03/17 04:57:31;;;;;;;11.18;3.50;;;;;;;-0.52;65.82;99526.78;4485385;31;20088;-67
2023/03/17 04:59:59;;;;;;;9.80;3.35;;;;;;;-0.52;66.03;99531.91;4485223;31;20112;-67
2023/03/17 05:02:27;;;;;;;8.48;4.00;;;;;;;-0.65;67.06;99531.44;4485043;31;20518;-67
2023/03/17 05:04:54;;;;;;;8.13;4.15;;;;;;;-0.72;67.56;99533.38;4485032;31;20096;-67
2023/03/17 05:07:21;;;;;;;10.02;4.72;;;;;;;-0.66;67.74;99529.78;4484429;31;20076;-67
2023/03/17 05:09:48;;;;;;;14.13;5.22;;;;;;;-0.64;67.85;99533.97;4484574;32;20140;-67
2023/03/17 05:12:16;;;;;;;10.38;4.37;;;;;;;-0.58;67.72;99536.34;4485012;31;20281;-67
2023/03/17 05:14:43;;;;;;;9.35;3.87;;;;;;;-0.53;67.59;99541.34;4484949;31;20116;-67
2023/03/17 05:17:10;;;;;;;9.68;4.35;;;;;;;-0.45;67.34;99538.56;4485060;31;20115;-67
2023/03/17 05:19:37;;;;;;;8.52;4.20;;;;;;;-0.32;67.27;99539.00;4485183;31;20420;-67
2023/03/17 05:22:05;;;;;;;8.15;3.95;;;;;;;-0.25;66.95;99535.34;4485206;31;20171;-67
2023/03/17 05:24:32;;;;;;;8.32;3.90;;;;;;;-0.11;66.92;99546.00;4484820;31;20101;-67
2023/03/17 05:27:00;;;;;;;8.52;3.45;;;;;;;-0.03;66.65;99543.19;4485357;31;20097;-68
2023/03/17 05:29:27;;;;;;;16.23;4.07;;;;;;;0.05;66.21;99538.63;4485164;31;20153;-67
2023/03/17 05:31:56;;;;;;;14.70;4.00;;;;;;;0.15;66.46;99534.84;4485317;31;20082;-67
2023/03/17 05:34:23;;;;;;;13.52;4.60;;;;;;;0.29;66.09;99542.09;4485143;31;20147;-67
2023/03/17 05:36:50;;;;;;;8.07;3.70;;;;;;;0.35;66.22;99547.03;4485099;31;20092;-68
2023/03/17 05:39:18;;;;;;;10.32;4.28;;;;;;;0.44;65.57;99543.31;4485331;31;20084;-67
2023/03/17 05:41:45;;;;;;;7.15;3.87;;;;;;;0.56;65.19;99543.75;4484635;31;20122;-67
2023/03/17 05:44:13;;;;;;;12.35;3.87;;;;;;;0.77;64.57;99550.72;4484721;31;20100;-67
2023/03/17 05:46:41;;;;;;;10.52;4.12;;;;;;;0.94;64.86;99549.25;4483453;31;20167;-66
2023/03/17 05:49:08;;;;;;;11.57;4.12;;;;;;;1.23;63.85;99536.09;4479470;31;20096;-67
2023/03/17 05:51:36;;;;;;;12.55;3.28;;;;;;;1.38;63.25;99528.66;4482115;31;20103;-68
2023/03/17 05:54:03;;;;;;;6.70;3.50;;;;;;;1.55;63.98;99526.25;4478807;32;20135;-67
2023/03/17 05:56:32;;;;;;;7.50;3.83;;;;;;;1.68;62.04;99530.91;4478648;32;20096;-67
2023/03/17 05:59:00;;;;;;;8.68;3.60;;;;;;;1.88;61.50;99533.53;4484161;31;20193;-68
2023/03/17 06:01:28;;;;;;;12.30;4.53;;;;;;;2.06;61.29;99538.81;4483366;31;20156;-67
2023/03/17 06:03:56;;;;;;;10.55;3.70;;;;;;;2.13;60.94;99532.50;4482240;31;20088;-68
2023/03/17 06:06:24;;;;;;;18.48;4.90;;;;;;;2.30;61.02;99539.53;4484183;31;20160;-67
2023/03/17 06:08:51;;;;;;;22.05;3.95;;;;;;;2.42;59.79;99536.44;4484333;31;20159;-67
2023/03/17 06:11:20;;;;;;;13.48;4.20;;;;;;;2.55;59.48;99531.56;4483228;31;20460;-68
2023/03/17 06:13:47;;;;;;;12.15;3.58;;;;;;;2.61;58.52;99539.06;4483715;31;20153;-67
2023/03/17 06:16:15;;;;;;;10.38;3.87;;;;;;;2.76;58.79;99539.28;4484397;31;20156;-67
2023/03/17 06:18:44;;;;;;;12.00;4.00;;;;;;;2.92;58.53;99542.00;4483778;31;20169;-67
2023/03/17 06:21:12;;;;;;;10.45;3.67;;;;;;;2.96;58.32;99543.56;4483349;32;20117;-67
2023/03/17 06:23:39;;;;;;;14.43;4.15;;;;;;;3.01;57.54;99545.03;4483393;31;20134;-67
2023/03/17 06:26:07;;;;;;;7.70;3.35;;;;;;;3.11;57.82;99542.84;4484489;31;20096;-67
2023/03/17 06:28:34;;;;;;;7.82;3.42;;;;;;;3.22;57.55;99550.13;4483149;31;20099;-67
2023/03/17 06:31:01;;;;;;;7.37;3.20;;;;;;;3.34;57.39;99554.72;4484429;31;20507;-67
2023/03/17 06:33:33;;;;;;;6.75;3.15;;;;;;;3.41;56.88;99557.88;4482703;31;20092;-67
2023/03/17 06:36:00;;;;;;;9.48;3.90;;;;;;;3.46;57.05;99549.88;4483939;31;20088;-67
2023/03/17 06:38:27;;;;;;;15.30;4.60;;;;;;;3.55;57.87;99562.41;4483549;31;20104;-67
2023/03/17 06:40:55;;;;;;;5.65;3.30;;;;;;;3.70;56.96;99566.03;4483875;31;20096;-67
2023/03/17 06:43:23;;;;;;;10.73;4.00;;;;;;;3.87;56.80;99565.19;4479423;31;20149;-67
2023/03/17 06:45:51;;;;;;;26.67;4.05;;;;;;;3.88;56.35;99566.87;4483362;32;20077;-67
2023/03/17 06:48:18;;;;;;;7.25;3.03;;;;;;;3.87;55.60;99573.81;4483395;31;20126;-67
2023/03/17 06:50:49;;;;;;;16.40;5.47;;;;;;;3.93;56.80;99567.47;4483387;31;20565;-67
2023/03/17 06:53:16;;;;;;;10.70;3.60;;;;;;;4.01;55.88;99572.28;4482911;31;20139;-67
2023/03/17 06:55:43;;;;;;;9.15;3.10;;;;;;;4.15;56.30;99576.78;4483181;31;20139;-67
2023/03/17 06:58:12;;;;;;;5.85;2.65;;;;;;;4.20;55.32;99575.66;4481923;31;20441;-67
2023/03/17 07:00:39;;;;;;;7.05;3.50;;;;;;;4.08;55.16;99576.25;4483963;31;20088;-68
2023/03/17 07:03:08;;;;;;;8.52;3.30;;;;;;;4.08;54.64;99579.69;4484082;32;20118;-67
2023/03/17 07:05:38;;;;;;;18.58;3.55;;;;;;;4.23;55.45;99582.44;4485669;31;20607;-67
2023/03/17 07:08:06;;;;;;;17.17;3.83;;;;;;;4.25;54.96;99583.19;4471152;31;20870;-68
2023/03/17 07:10:35;;;;;;;10.07;3.37;;;;;;;4.46;55.11;99580.44;4483622;31;20092;-67
2023/03/17 07:13:04;;;;;;;5.20;3.05;;;;;;;4.51;53.78;99589.69;4484430;31;20214;-67
2023/03/17 07:15:34;;;;;;;7.72;3.62;;;;;;;4.44;54.17;99596.94;4473113;32;20105;-67
2023/03/17 07:18:02;;;;;;;7.53;2.87;;;;;;;4.43;54.29;99597.84;4478435;31;20088;-68
2023/03/17 07:20:30;;;;;;;6.25;3.45;;;;;;;4.39;54.67;99591.16;4482607;31;20171;-67
2023/03/17 07:22:58;;;;;;;11.50;3.70;;;;;;;4.41;54.92;99598.84;4481993;32;20201;-68
2023/03/17 07:25:25;;;;;;;8.10;2.90;;;;;;;4.40;54.54;99587.59;4481203;32;20137;-67
2023/03/17 07:27:52;;;;;;;12.60;4.20;;;;;;;4.44;54.04;99598.69;4478776;31;20088;-67
2023/03/17 07:30:20;;;;;;;10.02;3.58;;;;;;;4.47;54.30;99605.47;4479121;31;20593;-67
2023/03/17 07:32:47;;;;;;;17.23;4.25;;;;;;;4.38;54.33;99605.03;4482431;32;20080;-67
2023/03/17 07:35:15;;;;;;;9.27;3.87;;;;;;;4.52;55.18;99603.50;4484276;31;20243;-68
2023/03/17 07:37:43;;;;;;;10.93;4.12;;;;;;;4.61;53.87;99605.59;4483219;31;20088;-68
2023/03/17 07:40:11;;;;;;;15.95;4.35;;;;;;;4.71;55.01;99601.62;4478527;31;20093;-67
2023/03/17 07:42:38;;;;;;;11.30;3.70;;;;;;;4.86;55.03;99619.91;4481694;31;20150;-67
2023/03/17 07:45:06;;;;;;;7.53;4.12;;;;;;;4.95;54.03;99609.91;4470995;32;20475;-68
2023/03/17 07:47:34;;;;;;;14.40;4.25;;;;;;;5.03;56.13;99606.91;4483483;31;20119;-67
2023/03/17 07:50:01;;;;;;;13.05;4.12;;;;;;;5.21;54.00;99615.47;4484375;31;20141;-68
2023/03/17 07:52:28;;;;;;;10.55;4.55;;;;;;;5.29;55.32;99621.06;4484074;31;20088;-67
2023/03/17 07:54:57;;;;;;;14.50;4.65;;;;;;;5.40;55.09;99610.09;4484569;31;20093;-67
2023/03/17 07:57:24;;;;;;;14.30;3.95;;;;;;;5.53;54.51;99617.22;4482020;31;20164;-67
2023/03/17 07:59:51;;;;;;;9.07;3.55;;;;;;;5.62;53.79;99620.19;4482864;31;20084;-68
2023/03/17 08:02:19;;;;;;;14.07;4.72;;;;;;;5.79;53.69;99614.03;4481562;31;20155;-68
2023/03/17 08:04:47;;;;;;;9.23;3.35;;;;;;;5.81;53.69;99622.59;4483637;31;20092;-68
2023/03/17 08:07:14;;;;;;;9.43;3.50;;;;;;;5.87;50.61;99613.59;4483433;31;20143;-68
2023/03/17 08:09:41;;;;;;;7.50;3.53;;;;;;;5.67;51.28;99605.16;4484617;31;20126;-67
2023/03/17 08:12:09;;;;;;;10.13;4.20;;;;;;;5.82;52.22;99611.25;4483776;31;20100;-67
2023/03/17 08:14:36;;;;;;;6.97;3.78;;;;;;;6.06;53.21;99607.38;4483969;31;20559;-67
2023/03/17 08:17:03;;;;;;;7.60;3.33;;;;;;;6.28;50.63;99607.00;4483120;32;20115;-68
2023/03/17 08:19:31;;;;;;;9.10;3.42;;;;;;;6.18;51.08;99598.91;4484323;32;20127;-68
2023/03/17 08:21:58;;;;;;;5.00;2.78;;;;;;;6.18;53.01;99602.31;4484393;31;20139;-68
2023/03/17 08:24:25;;;;;;;9.38;4.12;;;;;;;6.21;52.13;99602.16;4484429;31;20411;-67
2023/03/17 08:26:53;;;;;;;10.60;4.25;;;;;;;6.20;52.77;99605.66;4483991;32;20116;-68
2023/03/17 08:29:20;;;;;;;11.32;4.30;;;;;;;6.40;51.76;99608.88;4483364;32;20104;-68
2023/03/17 08:31:47;;;;;;;7.10;3.50;;;;;;;6.55;51.43;99604.53;4484244;31;20417;-68
2023/03/17 08:34:15;;;;;;;9.68;3.50;;;;;;;6.71;49.54;99596.66;4482008;31;20169;-68
2023/03/17 08:36:42;;;;;;;18.33;5.25;;;;;;;6.60;48.88;99594.72;4484786;31;20148;-67
2023/03/17 08:39:10;;;;;;;10.25;4.87;;;;;;;6.56;49.59;99599.25;4481661;31;20139;-67
2023/03/17 08:41:37;;;;;;;16.20;5.00;;;;;;;6.50;48.96;99617.81;4482525;31;20116;-68
2023/03/17 08:44:04;;;;;;;11.57;5.35;;;;;;;6.59;51.97;99598.22;4484342;31;20103;-68
2023/03/17 08:46:31;;;;;;;14.32;4.90;;;;;;;6.72;50.21;99601.78;4484393;31;20889;-68
2023/03/17 08:49:00;;;;;;;12.60;3.50;;;;;;;6.63;50.13;99606.69;4483440;31;20139;-68
2023/03/17 08:51:34;;;;;;;11.93;4.50;;;;;;;6.59;48.70;99605.22;4483749;31;20096;-67
2023/03/17 08:54:02;;;;;;;10.07;4.28;;;;;;;6.65;49.13;99594.44;4484368;31;20111;-68
2023/03/17 08:56:29;;;;;;;6.80;3.17;;;;;;;6.71;50.44;99597.50;4483431;32;20119;-68
2023/03/17 08:58:57;;;;;;;13.38;2.80;;;;;;;7.02;47.89;99597.41;4481397;31;20748;-68
2023/03/17 09:01:26;;;;;;;6.30;2.75;;;;;;;6.99;46.05;99598.41;4482635;31;20093;-68
2023/03/17 09:03:53;;;;;;;11.05;3.35;;;;;;;7.22;45.46;99603.97;4483983;31;20160;-68
2023/03/17 09:06:21;;;;;;;6.22;3.40;;;;;;;7.26;46.08;99606.31;4482965;31;20123;-68
2023/03/17 09:08:54;;;;;;;9.15;4.10;;;;;;;7.35;45.86;99602.28;4475155;32;20156;-68
2023/03/17 09:11:24;;;;;;;12.48;3.15;;;;;;;7.22;45.60;99604.84;4482794;31;20107;-68
2023/03/17 09:13:52;;;;;;;9.20;3.20;;;;;;;7.21;43.44;99603.16;4483784;32;20097;-68
2023/03/17 09:16:19;;;;;;;6.10;2.92;;;;;;;7.42;46.46;99605.37;4484578;31;20123;-68
2023/03/17 09:18:46;;;;;;;6.03;2.70;;;;;;;7.53;42.47;99594.25;4483261;32;20113;-68
2023/03/17 09:21:14;;;;;;;6.53;2.55;;;;;;;7.67;44.73;99598.59;4482142;31;20127;-68
2023/03/17 09:23:42;;;;;;;6.43;2.90;;;;;;;7.90;45.04;99589.28;4483737;31;20126;-68
2023/03/17 09:26:11;;;;;;;11.23;2.75;;;;;;;7.50;43.70;99584.84;4483506;31;20107;-68
2023/03/17 09:28:38;;;;;;;6.00;2.30;;;;;;;7.62;45.02;99585.84;4483395;32;20123;-68
2023/03/17 09:31:10;;;;;;;5.60;2.55;;;;;;;7.92;43.71;99579.59;4483392;31;20092;-68
2023/03/17 09:33:39;;;;;;;7.35;3.05;;;;;;;7.92;43.23;99580.41;4482013;32;20621;-68
2023/03/17 09:36:08;;;;;;;6.68;3.08;;;;;;;7.99;41.36;99583.44;4479052;31;20558;-68
2023/03/17 09:38:36;;;;;;;8.27;2.58;;;;;;;8.32;43.02;99585.59;4482783;31;20593;-68
2023/03/17 09:41:10;;;;;;;5.28;2.80;;;;;;;8.37;42.11;99585.28;4484497;31;20156;-68
2023/03/17 09:43:44;;;;;;;5.43;2.22;;;;;;;8.52;43.85;99580.84;4468776;32;20088;-68
2023/03/17 09:46:30;;;;;;;4.83;2.43;;;;;;;8.59;43.06;99589.94;4476310;32;20092;-68
2023/03/17 09:49:06;;;;;;;4.18;2.12;;;;;;;8.85;41.69;99585.53;4483496;31;20167;-68
2023/03/17 09:51:34;;;;;;;5.45;2.72;;;;;;;8.88;41.27;99587.13;4482742;31;20485;-68
2023/03/17 09:54:17;;;;;;;9.65;3.75;;;;;;;8.60;39.34;99570.72;4483037;31;20096;-68
2023/03/17 09:56:51;;;;;;;6.68;2.12;;;;;;;8.46;40.34;99571.69;4482830;32;20164;-68
2023/03/17 09:59:27;;;;;;;7.60;2.53;;;;;;;8.33;41.55;99579.44;4482565;32;20138;-68
2023/03/17 10:01:54;;;;;;;5.05;1.90;;;;;;;8.65;40.53;99571.25;4482198;31;20121;-68
2023/03/17 10:04:23;;;;;;;6.43;2.72;;;;;;;8.93;39.67;99566.72;4479155;31;20457;-65
2023/03/17 10:06:51;;;;;;;9.00;3.58;;;;;;;9.07;40.98;99571.00;4484020;31;20089;-65
2023/03/17 10:09:41;;;;;;;6.32;2.62;;;;;;;8.87;38.82;99570.62;4482962;32;20164;-68
2023/03/17 10:12:14;;;;;;;7.82;2.62;;;;;;;8.83;39.36;99568.31;4481934;31;20088;-68
2023/03/17 10:14:55;;;;;;;5.32;2.75;;;;;;;8.83;39.83;99569.16;4484256;32;20505;-68
2023/03/17 10:17:28;;;;;;;9.43;4.22;;;;;;;9.14;42.57;99576.63;4483184;32;20150;-68
2023/03/17 10:19:55;;;;;;;7.87;2.53;;;;;;;9.32;40.18;99569.25;4483342;32;20101;-68
2023/03/17 10:22:57;;;;;;;11.80;2.97;;;;;;;9.48;40.10;99554.13;4483676;31;20080;-68
2023/03/17 10:25:27;;;;;;;7.10;2.60;;;;;;;9.45;38.68;99563.97;4436683;32;20089;-68
2023/03/17 10:28:02;;;;;;;5.57;2.40;;;;;;;8.95;39.14;99554.41;4435134;32;20185;-68
2023/03/17 10:30:34;;;;;;;7.00;2.60;;;;;;;9.22;37.11;99542.94;4422581;32;20716;-68
2023/03/17 10:33:05;;;;;;;7.43;2.60;;;;;;;9.36;39.89;99552.41;4446224;32;20167;-68
2023/03/17 10:35:35;;;;;;;5.43;2.80;;;;;;;9.44;37.54;99541.41;4440183;32;20433;-67
2023/03/17 10:38:23;;;;;;;13.73;3.65;;;;;;;9.44;40.09;99531.75;4428738;32;20132;-68
2023/03/17 10:40:58;;;;;;;4.53;2.55;;;;;;;9.75;38.82;99526.94;4434184;32;20105;-68
2023/03/17 10:43:35;;;;;;;15.30;3.60;;;;;;;9.81;37.83;99533.47;4444621;32;20552;-65
2023/03/17 10:46:05;;;;;;;2.95;2.45;;;;;;;10.08;40.32;99522.72;4420125;32;20123;-65
2023/03/17 10:48:37;;;;;;;5.37;2.85;;;;;;;10.16;38.53;99532.62;4431219;32;21005;-65
2023/03/17 10:51:06;;;;;;;5.82;3.10;;;;;;;10.25;38.78;99531.91;4430938;32;20129;-65
2023/03/17 10:53:42;;;;;;;41.70;5.57;;;;;;;10.44;36.46;99536.63;4432773;32;20127;-65
2023/03/17 10:56:20;;;;;;;3.55;2.25;;;;;;;10.21;38.86;99535.75;4432175;32;20108;-65
2023/03/17 10:58:50;;;;;;;5.70;2.40;;;;;;;10.22;36.67;99532.16;4423904;32;20129;-65
2023/03/17 11:01:21;;;;;;;5.53;3.08;;;;;;;10.39;37.76;99529.13;4422870;32;20105;-65
2023/03/17 11:03:49;;;;;;;11.05;3.20;;;;;;;10.51;35.96;99529.13;4481893;32;20096;-68
2023/03/17 11:06:19;;;;;;;5.80;3.03;;;;;;;10.53;36.03;99508.91;4482533;32;20084;-68
2023/03/17 11:08:49;;;;;;;8.60;3.55;;;;;;;10.67;37.39;99515.69;4482276;31;20367;-68
2023/03/17 11:11:32;;;;;;;7.87;2.90;;;;;;;10.55;35.33;99499.13;4482650;31;20101;-68
2023/03/17 11:14:10;;;;;;;6.20;3.10;;;;;;;10.54;36.05;99500.09;4482458;31;20144;-66
2023/03/17 11:16:47;;;;;;;11.30;4.20;;;;;;;10.55;38.89;99491.28;4480927;32;20453;-65
2023/03/17 11:19:16;;;;;;;6.80;3.20;;;;;;;10.77;35.04;99496.50;4480135;32;20104;-65
2023/03/17 11:21:58;;;;;;;15.63;3.22;;;;;;;10.66;37.76;99496.53;4481104;32;20104;-65
2023/03/17 11:24:31;;;;;;;30.10;3.42;;;;;;;10.45;37.76;99497.22;4481965;32;20205;-65
2023/03/17 11:27:43;;;;;;;7.90;3.25;;;;;;;10.43;37.37;99491.28;4479391;31;20156;-65
2023/03/17 11:30:18;;;;;;;12.02;3.10;;;;;;;10.66;37.65;99486.03;4432349;32;20139;-65
2023/03/17 11:33:15;;;;;;;7.62;3.50;;;;;;;10.82;39.04;99477.78;4431717;32;20140;-65
2023/03/17 11:35:53;;;;;;;6.05;3.22;;;;;;;10.90;35.67;99482.44;4386637;32;20197;-65
2023/03/17 11:38:46;;;;;;;14.73;3.67;;;;;;;10.30;34.93;99480.03;4384221;32;20192;-65
2023/03/17 11:41:14;;;;;;;5.05;3.00;;;;;;;10.35;37.75;99477.94;4327263;33;20126;-65
2023/03/17 11:44:04;;;;;;;7.93;3.00;;;;;;;10.48;36.48;99473.41;4328474;33;20157;-65
2023/03/17 11:46:54;;;;;;;8.30;2.80;;;;;;;10.34;34.91;99463.19;4326180;33;20107;-65
2023/03/17 11:49:35;;;;;;;14.20;3.97;;;;;;;10.56;37.18;99461.50;4327771;33;20353;-65